Time;durP1;ratioP1;P1;durP2;ratioP2;P2;SDS_P1;SDS_P2;PMS_P1;PMS_P2;Temp;Humidity;BMP_temperature;BMP_pressure;BME280_temperature;BME280_humidity;BME280_pressure;Samples;Min_cycle;Max_cycle;Signal;HPM_P1;HPM_P2
2022/08/02 00:00:16;;;;;;;3.22;2.80;;;;;;;22.54;68.90;99813.55;1719052;82;21620;-72
2022/08/02 00:02:44;;;;;;;3.22;2.72;;;;;;;22.54;68.85;99815.47;1720298;82;21022;-73
2022/08/02 00:05:12;;;;;;;6.15;5.28;;;;;;;22.56;68.87;99807.85;1718345;82;21058;-68
2022/08/02 00:07:40;;;;;;;3.00;2.80;;;;;;;22.57;68.82;99812.76;1719021;82;21048;-71
2022/08/02 00:10:10;;;;;;;3.00;2.80;;;;;;;22.57;68.93;99809.48;1718413;82;21088;-73
2022/08/02 00:12:38;;;;;;;3.17;2.98;;;;;;;22.56;68.97;99801.06;1720929;82;21749;-71
2022/08/02 00:15:10;;;;;;;3.27;2.75;;;;;;;22.57;69.00;99803.25;1716434;82;22259;-71
2022/08/02 00:17:37;;;;;;;3.70;3.45;;;;;;;22.54;68.87;99799.98;1715294;82;21537;-73
2022/08/02 00:20:05;;;;;;;2.98;2.87;;;;;;;22.50;68.87;99795.41;1712215;82;21172;-72
2022/08/02 00:22:32;;;;;;;4.30;3.20;;;;;;;22.47;69.05;99804.09;1724097;81;20983;-70
2022/08/02 00:24:58;;;;;;;3.90;3.20;;;;;;;22.42;69.26;99799.52;1721416;82;21054;-72
2022/08/02 00:27:24;;;;;;;2.67;2.30;;;;;;;22.40;69.39;99798.19;1742780;82;21062;-72
2022/08/02 00:29:51;;;;;;;3.37;3.12;;;;;;;22.39;69.53;99801.98;1742025;82;21145;-71
2022/08/02 00:32:17;;;;;;;3.77;2.95;;;;;;;22.37;69.62;99806.88;1737466;81;21034;-71
2022/08/02 00:34:43;;;;;;;3.37;3.17;;;;;;;22.35;69.75;99806.61;1727452;81;21085;-72
2022/08/02 00:37:09;;;;;;;3.65;3.35;;;;;;;22.34;69.99;99810.42;1736660;81;21038;-71
2022/08/02 00:39:36;;;;;;;3.72;3.35;;;;;;;22.30;70.22;99808.01;1734245;82;21047;-72
2022/08/02 00:42:03;;;;;;;4.00;3.05;;;;;;;22.27;70.59;99809.91;1752340;81;21530;-72
2022/08/02 00:44:29;;;;;;;3.65;3.35;;;;;;;22.27;70.89;99810.47;1739895;81;21558;-71
2022/08/02 00:46:56;;;;;;;4.17;3.80;;;;;;;22.25;71.17;99806.67;1737474;81;21002;-72
2022/08/02 00:49:22;;;;;;;3.70;3.60;;;;;;;22.24;71.47;99809.08;1727198;82;21121;-70
2022/08/02 00:51:48;;;;;;;7.15;4.22;;;;;;;22.25;71.98;99804.48;1740917;81;21116;-71
2022/08/02 00:54:14;;;;;;;6.40;4.05;;;;;;;22.22;72.40;99803.11;1743011;82;21487;-71
2022/08/02 00:56:41;;;;;;;4.50;4.20;;;;;;;22.19;73.15;99807.77;1741193;81;21134;-71
2022/08/02 00:59:07;;;;;;;4.53;4.12;;;;;;;22.16;73.44;99804.23;1740344;81;21577;-72
2022/08/02 01:01:39;;;;;;;4.65;3.95;;;;;;;22.11;73.62;99809.16;1714093;82;21079;-71
2022/08/02 01:04:12;;;;;;;4.53;4.08;;;;;;;22.05;73.83;99795.87;1706725;83;21106;-72
2022/08/02 01:06:42;;;;;;;4.92;4.53;;;;;;;22.00;74.68;99802.14;1707261;83;21078;-71
2022/08/02 01:09:09;;;;;;;4.53;3.95;;;;;;;21.94;75.47;99802.70;1701091;83;21034;-70
2022/08/02 01:11:36;;;;;;;5.08;4.78;;;;;;;21.87;76.11;99799.47;1670269;84;20990;-71
2022/08/02 01:14:12;;;;;;;6.85;4.00;;;;;;;21.82;76.99;99800.03;1685328;84;21105;-70
2022/08/02 01:16:44;;;;;;;6.40;4.28;;;;;;;21.77;77.57;99803.55;1720433;82;20987;-71
2022/08/02 01:19:16;;;;;;;5.05;4.62;;;;;;;21.72;77.67;99804.95;1718420;82;21038;-71
2022/08/02 01:22:27;;;;;;;5.78;4.75;;;;;;;21.67;77.80;99810.37;1707328;82;21047;-72
2022/08/02 01:25:34;;;;;;;5.25;4.72;;;;;;;21.60;77.97;99805.22;1699994;82;21034;-71
2022/08/02 01:28:23;;;;;;;4.25;4.05;;;;;;;21.53;77.97;99810.11;1713739;82;21575;-70
2022/08/02 01:30:55;;;;;;;7.20;4.85;;;;;;;21.41;78.49;99803.59;1710770;82;21192;-70
2022/08/02 01:33:27;;;;;;;4.90;4.60;;;;;;;21.36;79.03;99804.44;1677077;84;21010;-70
2022/08/02 01:35:55;;;;;;;5.85;5.03;;;;;;;21.33;79.36;99801.45;1721374;82;20994;-70
2022/08/02 01:38:42;;;;;;;5.20;4.65;;;;;;;21.31;79.22;99800.91;1720341;82;21570;-69
2022/08/02 01:41:12;;;;;;;5.33;5.00;;;;;;;21.30;78.87;99804.70;1721957;82;21563;-70
2022/08/02 01:43:41;;;;;;;4.85;4.53;;;;;;;21.24;79.00;99801.73;1705132;82;21455;-71
2022/08/02 01:46:10;;;;;;;6.40;4.35;;;;;;;21.16;79.27;99795.77;1660051;84;20994;-69
2022/08/02 01:48:38;;;;;;;4.92;4.47;;;;;;;21.12;79.40;99792.53;1640595;86;21068;-72
2022/08/02 01:51:08;;;;;;;4.50;4.20;;;;;;;21.07;79.41;99791.97;1673382;84;21523;-71
2022/08/02 01:53:35;;;;;;;4.80;4.40;;;;;;;21.06;79.42;99794.42;1679357;84;21073;-71
2022/08/02 01:56:04;;;;;;;4.78;4.30;;;;;;;21.07;79.10;99795.23;1668885;84;21537;-70
2022/08/02 01:58:35;;;;;;;5.60;3.90;;;;;;;21.05;78.85;99787.37;1671421;86;21129;-72
2022/08/02 02:01:05;;;;;;;4.60;4.20;;;;;;;21.04;78.65;99795.24;1677275;83;21093;-70
2022/08/02 02:03:34;;;;;;;4.53;3.90;;;;;;;21.02;78.52;99789.28;1694672;83;21052;-71
2022/08/02 02:06:03;;;;;;;3.50;3.30;;;;;;;21.07;78.55;99781.69;1699492;83;21107;-71
2022/08/02 02:08:37;;;;;;;3.42;3.22;;;;;;;21.11;78.01;99779.50;1693295;83;20980;-71
2022/08/02 02:11:04;;;;;;;4.30;4.00;;;;;;;21.14;77.76;99780.32;1655896;83;21022;-70
2022/08/02 02:13:31;;;;;;;3.95;3.67;;;;;;;21.18;77.44;99781.95;1709470;83;21049;-70
2022/08/02 02:16:02;;;;;;;3.70;3.42;;;;;;;21.20;77.06;99774.35;1693566;83;21016;-71
2022/08/02 02:18:31;;;;;;;3.42;3.12;;;;;;;21.24;76.65;99775.43;1700356;83;21056;-70
2022/08/02 02:20:59;;;;;;;3.70;3.40;;;;;;;21.28;76.15;99781.92;1680746;84;21140;-70
2022/08/02 02:23:25;;;;;;;3.67;3.20;;;;;;;21.28;75.63;99775.15;1709448;82;21015;-71
2022/08/02 02:25:53;;;;;;;3.40;3.10;;;;;;;21.29;75.37;99780.05;1717900;83;21536;-71
2022/08/02 02:28:28;;;;;;;2.80;2.70;;;;;;;21.29;75.23;99779.50;1680266;84;21118;-69
2022/08/02 02:31:03;;;;;;;3.42;2.95;;;;;;;21.31;75.25;99781.94;1682163;84;21552;-70
2022/08/02 02:33:33;;;;;;;3.20;3.00;;;;;;;21.31;75.12;99773.26;1680603;83;21060;-71
2022/08/02 02:36:02;;;;;;;3.50;3.25;;;;;;;21.30;75.04;99775.69;1719692;82;20997;-72
2022/08/02 02:38:31;;;;;;;3.98;3.30;;;;;;;21.29;75.01;99775.43;1717251;82;21048;-70
2022/08/02 02:41:02;;;;;;;2.70;2.60;;;;;;;21.27;74.85;99774.09;1718299;82;21062;-68
2022/08/02 02:43:32;;;;;;;5.60;3.22;;;;;;;21.23;74.85;99772.47;1718880;82;21039;-68
2022/08/02 02:46:01;;;;;;;8.68;2.90;;;;;;;21.23;75.00;99766.21;1710537;83;21082;-69
2022/08/02 02:48:28;;;;;;;4.45;2.87;;;;;;;21.22;74.84;99768.66;1710810;83;21482;-70
2022/08/02 02:50:56;;;;;;;3.45;3.15;;;;;;;21.20;74.89;99767.03;1710209;83;21065;-69
2022/08/02 02:53:25;;;;;;;3.83;3.52;;;;;;;21.18;74.84;99770.55;1705478;83;21008;-69
2022/08/02 02:55:52;;;;;;;7.85;3.80;;;;;;;21.18;74.78;99769.20;1710076;82;21026;-70
2022/08/02 02:58:19;;;;;;;5.70;2.80;;;;;;;21.19;74.71;99767.30;1718171;82;21022;-69
2022/08/02 03:03:31;;;;;;;6.30;3.05;;;;;;;21.19;74.59;99765.94;1716852;83;21136;-69
2022/08/02 03:05:57;;;;;;;8.08;3.25;;;;;;;21.17;74.55;99770.30;1717048;83;21514;-69
2022/08/02 03:08:24;;;;;;;3.62;3.42;;;;;;;21.17;74.34;99768.95;1717342;82;21099;-68
2022/08/02 03:10:51;;;;;;;3.15;2.70;;;;;;;21.19;74.31;99772.20;1716125;83;21101;-69
2022/08/02 03:13:18;;;;;;;4.25;3.92;;;;;;;21.23;74.02;99771.63;1716252;82;21069;-70
2022/08/02 03:15:46;;;;;;;3.52;3.22;;;;;;;21.25;73.77;99780.30;1716169;82;21046;-69
2022/08/02 03:18:36;;;;;;;5.20;3.70;;;;;;;21.26;73.61;99778.67;1712866;82;21054;-68
2022/08/02 03:21:06;;;;;;;7.33;3.85;;;;;;;21.28;73.35;99782.47;1717225;83;20959;-69
2022/08/02 03:23:34;;;;;;;4.30;3.90;;;;;;;21.29;72.89;99780.05;1716089;82;21569;-72
2022/08/02 03:26:01;;;;;;;3.50;3.27;;;;;;;21.29;72.89;99780.85;1717799;83;21633;-70
2022/08/02 03:28:28;;;;;;;4.10;3.25;;;;;;;21.32;72.81;99785.73;1716135;82;20991;-69
2022/08/02 03:30:54;;;;;;;3.58;3.35;;;;;;;21.33;72.99;99785.99;1716172;83;21121;-68
2022/08/02 03:33:23;;;;;;;6.05;4.15;;;;;;;21.34;73.67;99784.09;1715942;82;21023;-69
2022/08/02 03:35:52;;;;;;;4.92;4.47;;;;;;;21.22;74.38;99770.83;1717869;82;21002;-69
2022/08/02 03:38:22;;;;;;;8.75;5.00;;;;;;;21.27;74.96;99783.58;1717144;82;21009;-69
2022/08/02 03:40:50;;;;;;;7.67;4.37;;;;;;;21.24;75.78;99782.75;1717758;82;21087;-70
2022/08/02 03:43:16;;;;;;;4.50;4.10;;;;;;;21.19;76.39;99784.39;1715940;83;21030;-69
2022/08/02 03:45:49;;;;;;;5.40;3.70;;;;;;;21.09;76.84;99780.86;1716312;82;21054;-69
2022/08/02 03:48:16;;;;;;;4.80;4.33;;;;;;;21.02;77.71;99775.73;1717285;83;20986;-70
2022/08/02 03:50:45;;;;;;;4.80;3.85;;;;;;;20.93;78.05;99776.00;1717926;82;21542;-70
2022/08/02 03:53:13;;;;;;;4.10;3.77;;;;;;;20.80;78.99;99773.28;1716553;82;21175;-72
2022/08/02 03:55:39;;;;;;;4.17;3.87;;;;;;;20.75;79.01;99771.37;1717647;82;21006;-70
2022/08/02 03:58:06;;;;;;;4.50;4.10;;;;;;;20.69;79.82;99775.16;1716537;82;21006;-69
2022/08/02 04:00:33;;;;;;;4.78;3.75;;;;;;;20.63;79.53;99777.59;1710960;82;21002;-69
2022/08/02 04:02:59;;;;;;;7.10;4.00;;;;;;;20.55;79.67;99768.08;1718031;82;21062;-69
2022/08/02 04:05:26;;;;;;;4.25;3.92;;;;;;;20.52;80.32;99771.31;1717922;82;20986;-69
2022/08/02 04:07:52;;;;;;;4.20;3.90;;;;;;;20.51;80.43;99770.22;1716914;82;21113;-68
2022/08/02 04:10:19;;;;;;;4.33;3.95;;;;;;;20.51;80.72;99768.87;1715865;82;21121;-71
2022/08/02 04:12:45;;;;;;;4.60;3.37;;;;;;;20.49;80.83;99776.45;1716589;81;21014;-69
2022/08/02 04:15:14;;;;;;;5.47;3.85;;;;;;;20.48;80.75;99776.19;1715413;83;21117;-69
2022/08/02 04:17:56;;;;;;;3.90;3.50;;;;;;;20.47;81.34;99772.65;1716376;82;21078;-70
2022/08/02 04:20:29;;;;;;;6.55;3.30;;;;;;;20.46;80.97;99775.65;1716813;82;21363;-70
2022/08/02 04:23:00;;;;;;;4.00;3.07;;;;;;;20.42;81.75;99777.53;1703467;82;21651;-71
2022/08/02 04:25:27;;;;;;;3.87;3.35;;;;;;;20.41;80.79;99784.55;1687452;83;21131;-69
2022/08/02 04:27:54;;;;;;;4.50;3.85;;;;;;;20.39;79.45;99798.34;1686603;83;21070;-70
2022/08/02 04:30:20;;;;;;;4.37;3.95;;;;;;;20.39;78.87;99811.88;1689661;83;21084;-70
2022/08/02 04:32:46;;;;;;;4.03;3.58;;;;;;;20.33;79.97;99809.44;1686464;83;21004;-71
2022/08/02 04:35:14;;;;;;;;;;;;;;;20.29;80.59;99819.98;1684565;84;21072;-71
2022/08/02 04:37:40;;;;;;;;;;;;;;;20.21;81.14;99820.47;1681756;84;20390;-71
2022/08/02 04:40:12;;;;;;;4.53;3.62;;;;;;;20.09;81.24;99813.94;1671559;84;20161;-71
2022/08/02 04:42:39;;;;;;;4.25;3.98;;;;;;;20.01;81.46;99822.57;1680943;84;21048;-70
2022/08/02 04:45:08;;;;;;;4.60;4.22;;;;;;;19.96;81.88;99817.94;1676387;84;21072;-70
2022/08/02 04:47:34;;;;;;;5.90;4.65;;;;;;;19.93;81.81;99820.34;1685831;84;21076;-71
2022/08/02 04:50:00;;;;;;;5.87;5.37;;;;;;;19.91;83.00;99818.45;1673801;84;21030;-71
2022/08/02 04:52:26;;;;;;;4.60;4.25;;;;;;;19.85;82.14;99821.66;1682726;84;21056;-69
2022/08/02 04:54:53;;;;;;;6.58;5.12;;;;;;;19.81;83.57;99824.08;1679424;84;21020;-71
2022/08/02 05:00:07;;;;;;;4.75;4.20;;;;;;;19.76;83.99;99818.66;1669785;84;21064;-70
2022/08/02 05:02:35;;;;;;;5.05;4.55;;;;;;;19.76;83.25;99823.23;1663479;84;21035;-71
2022/08/02 05:05:02;;;;;;;12.78;4.37;;;;;;;19.77;83.70;99826.22;1685062;84;21099;-73
2022/08/02 05:07:29;;;;;;;4.72;4.28;;;;;;;19.72;84.01;99823.45;1679563;84;21021;-71
2022/08/02 05:09:55;;;;;;;4.22;3.92;;;;;;;19.63;84.47;99819.90;1682707;84;21106;-72
2022/08/02 05:12:23;;;;;;;6.25;4.17;;;;;;;19.58;84.50;99821.20;1678818;83;21026;-73
2022/08/02 05:14:49;;;;;;;4.72;4.12;;;;;;;19.55;85.40;99831.21;1673269;84;21060;-70
2022/08/02 05:17:15;;;;;;;6.35;4.58;;;;;;;19.50;85.66;99826.30;1679151;84;21637;-71
2022/08/02 05:19:41;;;;;;;;;;;;;;;19.47;86.64;99820.05;1684221;84;21005;-72
2022/08/02 05:22:08;;;;;;;5.53;5.12;;;;;;;19.41;87.73;99825.96;1683754;84;20141;-72
2022/08/02 05:24:34;;;;;;;7.67;6.95;;;;;;;19.32;88.21;99826.16;1683240;84;21036;-71
2022/08/02 05:29:10;;;;;;;6.00;4.55;;;;;;;19.31;89.05;99824.52;1807615;78;22804;-74
2022/08/02 05:31:36;;;;;;;5.92;4.10;;;;;;;19.24;89.14;99824.75;1781316;80;21044;-75
2022/08/02 05:34:03;;;;;;;11.55;10.50;;;;;;;19.22;89.84;99833.11;1746209;80;21342;-70
2022/08/02 05:36:29;;;;;;;;;;;;;;;19.20;90.12;99835.26;1725660;81;21082;-68
2022/08/02 05:38:56;;;;;;;5.97;4.90;;;;;;;19.18;89.99;99841.45;1713500;81;20150;-68
2022/08/02 05:41:25;;;;;;;4.25;3.95;;;;;;;19.14;90.51;99832.79;1725922;81;21038;-68
2022/08/02 05:43:51;;;;;;;;;;;;;;;19.17;90.37;99833.06;1728212;81;21142;-70
2022/08/02 05:46:17;;;;;;;5.08;3.95;;;;;;;19.22;89.03;99837.70;1737085;81;20221;-74
2022/08/02 05:48:44;;;;;;;5.22;3.95;;;;;;;19.18;89.01;99840.66;1742366;80;21517;-76
2022/08/02 05:51:18;;;;;;;4.12;3.75;;;;;;;19.18;89.34;99837.41;1746166;80;20994;-72
2022/08/02 05:53:54;;;;;;;6.25;5.70;;;;;;;19.18;89.09;99836.60;1736854;81;21066;-73
2022/08/02 05:56:33;;;;;;;4.92;4.47;;;;;;;19.21;88.96;99835.55;1740381;81;20982;-74
2022/08/02 05:59:26;;;;;;;5.33;4.92;;;;;;;19.26;90.38;99836.92;1745394;80;21664;-73
2022/08/02 06:01:57;;;;;;;8.78;5.95;;;;;;;19.31;91.63;99835.33;1676950;84;21089;-73
2022/08/02 06:04:29;;;;;;;7.58;5.87;;;;;;;19.37;92.38;99837.02;1674096;84;21396;-71
2022/08/02 06:07:00;;;;;;;8.35;7.72;;;;;;;19.38;92.90;99833.23;1681307;81;21115;-74
2022/08/02 06:09:27;;;;;;;7.62;5.92;;;;;;;19.41;93.67;99838.12;1712592;81;21100;-75
2022/08/02 06:11:57;;;;;;;5.95;5.50;;;;;;;19.46;93.20;99840.87;1710090;81;21072;-76
2022/08/02 06:14:24;;;;;;;6.00;5.47;;;;;;;19.49;92.31;99847.09;1713069;82;21378;-74
2022/08/02 06:16:51;;;;;;;9.80;5.90;;;;;;;19.53;92.07;99844.14;1715221;82;21039;-75
2022/08/02 06:19:19;;;;;;;5.62;5.12;;;;;;;19.61;92.00;99846.38;1718832;81;21555;-76
2022/08/02 06:21:47;;;;;;;5.50;5.00;;;;;;;19.74;91.34;99837.55;1717063;81;21118;-71
2022/08/02 06:24:17;;;;;;;6.60;6.00;;;;;;;19.80;91.16;99833.83;1741017;80;21054;-73
2022/08/02 06:26:44;;;;;;;5.78;5.28;;;;;;;19.81;91.92;99832.19;1738670;80;21178;-69
2022/08/02 06:29:12;;;;;;;4.75;4.22;;;;;;;19.81;91.47;99830.03;1732007;81;21570;-75
2022/08/02 06:31:41;;;;;;;10.60;7.92;;;;;;;19.78;91.83;99821.91;1735578;81;20941;-76
2022/08/02 06:34:07;;;;;;;5.60;5.12;;;;;;;19.57;92.52;99789.86;1719230;81;21072;-76
2022/08/02 06:36:48;;;;;;;7.25;5.62;;;;;;;19.84;92.57;99818.16;1688210;83;21134;-75
2022/08/02 06:39:27;;;;;;;8.15;6.53;;;;;;;19.88;93.17;99817.64;1690650;83;21105;-73
2022/08/02 06:41:58;;;;;;;5.70;5.20;;;;;;;19.90;93.60;99810.87;1691137;83;21136;-72
2022/08/02 06:44:26;;;;;;;6.05;5.40;;;;;;;19.96;93.40;99812.52;1690331;81;21613;-74
2022/08/02 06:46:52;;;;;;;;;;;;;;;19.97;94.22;99810.11;1693644;83;21188;-73
2022/08/02 06:49:19;;;;;;;6.37;5.72;;;;;;;19.99;94.80;99813.36;1686762;83;20186;-73
2022/08/02 06:51:45;;;;;;;4.70;4.40;;;;;;;19.98;93.81;99807.66;1687205;83;21291;-77
2022/08/02 06:54:11;;;;;;;4.78;3.87;;;;;;;19.97;93.59;99807.41;1690755;83;21054;-76
2022/08/02 06:56:37;;;;;;;4.62;4.30;;;;;;;19.97;93.06;99807.95;1678581;83;21104;-73
2022/08/02 06:59:03;;;;;;;;;;;;;;;19.95;92.70;99801.45;1676188;83;21562;-73
2022/08/02 07:01:30;;;;;;;4.07;3.83;;;;;;;19.95;92.62;99801.45;1703561;82;20138;-74
2022/08/02 07:03:56;;;;;;;5.00;4.03;;;;;;;19.90;91.83;99798.70;1713406;82;21036;-75
2022/08/02 07:06:22;;;;;;;4.90;4.60;;;;;;;19.95;91.75;99798.73;1716881;82;21041;-78
2022/08/02 07:08:49;;;;;;;4.87;4.47;;;;;;;20.01;91.78;99807.69;1711770;82;21042;-76
2022/08/02 07:11:15;;;;;;;5.60;5.08;;;;;;;20.00;91.54;99806.05;1730944;82;21514;-76
2022/08/02 07:13:42;;;;;;;4.75;4.33;;;;;;;19.96;91.61;99818.48;1730370;82;21015;-76
2022/08/02 07:16:10;;;;;;;5.45;4.62;;;;;;;19.91;91.91;99818.45;1712476;82;21549;-77
2022/08/02 07:18:36;;;;;;;4.40;4.00;;;;;;;19.94;92.30;99820.09;1726293;82;21454;-72
2022/08/02 07:21:04;;;;;;;4.53;4.08;;;;;;;20.01;91.94;99828.78;1693821;83;21098;-72
2022/08/02 07:23:31;;;;;;;4.50;4.15;;;;;;;20.02;91.90;99831.78;1710372;82;21027;-73
2022/08/02 07:25:59;;;;;;;5.72;5.33;;;;;;;19.97;92.96;99834.45;1719581;82;21515;-77
2022/08/02 07:28:26;;;;;;;7.78;4.28;;;;;;;19.92;92.96;99837.12;1732672;82;21057;-69
2022/08/02 07:30:53;;;;;;;4.67;4.35;;;;;;;19.85;93.39;99831.13;1715452;82;21536;-70
2022/08/02 07:33:19;;;;;;;;;;;;;;;19.80;93.37;99836.53;1715825;82;21019;-70
2022/08/02 07:35:45;;;;;;;5.62;4.53;;;;;;;19.82;93.43;99839.23;1682756;83;20147;-70
2022/08/02 07:38:11;;;;;;;;;;;;;;;19.79;93.01;99840.30;1687778;83;21114;-71
2022/08/02 07:40:40;;;;;;;5.28;4.87;;;;;;;19.84;92.61;99852.50;1695909;83;20165;-70
2022/08/02 07:43:15;;;;;;;5.60;4.85;;;;;;;19.77;92.39;99847.31;1687095;83;21066;-69
2022/08/02 07:45:42;;;;;;;4.55;4.12;;;;;;;19.75;92.67;99858.92;1688963;83;21040;-71
2022/08/02 07:48:09;;;;;;;6.05;4.50;;;;;;;19.73;92.62;99857.57;1686201;83;21018;-70
2022/08/02 07:50:37;;;;;;;4.75;3.92;;;;;;;19.68;92.58;99864.26;1690613;83;21530;-70
2022/08/02 07:53:04;;;;;;;4.97;4.47;;;;;;;19.62;92.73;99870.97;1673503;83;21138;-70
2022/08/02 07:55:30;;;;;;;3.87;3.67;;;;;;;19.61;92.73;99878.02;1682218;82;21104;-70
2022/08/02 07:57:56;;;;;;;;;;;;;;;19.72;93.26;99877.05;1664490;84;21652;-69
2022/08/02 08:00:22;;;;;;;8.08;4.75;;;;;;;19.79;92.93;99876.80;1661504;84;20174;-70
2022/08/02 08:02:48;;;;;;;;;;;;;;;19.70;93.68;99876.43;1690323;83;21006;-69
2022/08/02 08:05:15;;;;;;;5.45;4.87;;;;;;;19.60;94.26;99878.53;1682238;83;20158;-69
2022/08/02 08:07:42;;;;;;;5.25;4.65;;;;;;;19.50;95.38;99879.02;1687368;83;21077;-69
2022/08/02 08:10:10;;;;;;;7.40;5.55;;;;;;;19.45;96.15;99888.69;1655222;85;21069;-70
2022/08/02 08:12:37;;;;;;;6.03;4.45;;;;;;;19.41;96.65;99885.42;1668729;83;21039;-70
2022/08/02 08:15:04;;;;;;;4.72;4.33;;;;;;;19.37;97.51;99878.91;1694534;83;21101;-71
2022/08/02 08:17:31;;;;;;;7.05;5.75;;;;;;;19.34;97.69;99882.11;1675751;83;21141;-71
2022/08/02 08:19:58;;;;;;;6.28;5.87;;;;;;;19.31;98.05;99879.40;1670957;83;20998;-71
2022/08/02 08:22:23;;;;;;;;;;;;;;;19.36;99.50;99868.61;1668621;83;21049;-69
2022/08/02 08:24:50;;;;;;;9.25;5.60;;;;;;;19.46;99.45;99873.30;1712629;82;20471;-71
2022/08/02 08:27:17;;;;;;;6.78;5.12;;;;;;;19.44;99.08;99867.34;1711380;82;21007;-71
2022/08/02 08:29:44;;;;;;;6.28;5.53;;;;;;;19.47;98.97;99864.11;1714267;82;21059;-71
2022/08/02 08:32:10;;;;;;;4.95;4.65;;;;;;;19.48;98.83;99864.40;1709160;82;21011;-70
2022/08/02 08:34:37;;;;;;;5.22;4.83;;;;;;;19.51;98.84;99857.11;1707250;81;21000;-70
2022/08/02 08:37:02;;;;;;;;;;;;;;;19.53;98.78;99863.06;1716690;82;21511;-70
2022/08/02 08:39:29;;;;;;;5.97;5.58;;;;;;;19.50;98.70;99863.59;1715838;82;20124;-70
2022/08/02 08:41:56;;;;;;;6.17;5.53;;;;;;;19.44;99.29;99866.00;1714103;82;21494;-70
2022/08/02 08:44:22;;;;;;;6.10;5.45;;;;;;;19.45;100.00;99868.95;1714002;82;21071;-71
2022/08/02 08:46:49;;;;;;;;;;;;;;;19.45;100.00;99868.95;1729013;82;21092;-70
2022/08/02 08:49:25;;;;;;;6.30;5.80;;;;;;;19.49;100.00;99867.91;1724450;82;20409;-71
2022/08/02 08:51:54;;;;;;;5.95;5.35;;;;;;;19.48;100.00;99874.38;1719957;82;21532;-70
2022/08/02 08:54:24;;;;;;;5.72;5.25;;;;;;;19.51;100.00;99880.08;1723391;82;21076;-69
2022/08/02 08:56:53;;;;;;;6.08;5.45;;;;;;;19.49;100.00;99890.34;1707651;82;21678;-70
2022/08/02 08:59:19;;;;;;;6.95;6.42;;;;;;;19.49;100.00;99885.48;1704561;82;21023;-71
2022/08/02 09:01:45;;;;;;;;;;;;;;;19.49;100.00;99895.74;1672993;84;21490;-71
2022/08/02 09:04:12;;;;;;;9.00;6.75;;;;;;;19.47;100.00;99898.44;1671638;84;20217;-72
2022/08/02 09:06:39;;;;;;;6.78;6.20;;;;;;;19.41;100.00;99896.23;1649197;86;21114;-70
2022/08/02 09:09:05;;;;;;;6.67;6.22;;;;;;;19.40;100.00;99902.17;1645801;84;21049;-71
2022/08/02 09:11:32;;;;;;;6.90;6.20;;;;;;;19.41;100.00;99901.09;1664332;84;21066;-69
2022/08/02 09:14:02;;;;;;;8.03;7.35;;;;;;;19.40;100.00;99898.64;1648375;85;21036;-71
2022/08/02 09:16:35;;;;;;;4.70;4.40;;;;;;;19.40;100.00;99901.34;1650179;86;21054;-70
2022/08/02 09:19:20;;;;;;;4.50;4.25;;;;;;;19.37;100.00;99893.22;1643611;85;21636;-71
2022/08/02 09:22:01;;;;;;;4.78;3.87;;;;;;;19.33;100.00;99898.06;1613234;85;21061;-71
2022/08/02 09:24:27;;;;;;;5.20;4.78;;;;;;;19.29;100.00;99899.11;1624012;87;21120;-70
2022/08/02 09:26:53;;;;;;;;;;;;;;;19.26;100.00;99899.06;1621985;87;21543;-71
2022/08/02 09:29:23;;;;;;;3.80;3.55;;;;;;;19.26;100.00;99895.02;1600431;87;20404;-71
2022/08/02 09:31:50;;;;;;;3.95;3.58;;;;;;;19.22;100.00;99887.14;1684152;83;21599;-71
2022/08/02 09:34:17;;;;;;;2.75;2.65;;;;;;;19.22;100.00;99881.74;1651172;84;21488;-70
2022/08/02 09:36:46;;;;;;;3.98;3.12;;;;;;;19.24;100.00;99885.00;1637362;86;21064;-70
2022/08/02 09:39:15;;;;;;;5.62;5.10;;;;;;;19.25;100.00;99894.75;1653944;84;21044;-70
2022/08/02 09:41:44;;;;;;;3.95;3.75;;;;;;;19.23;100.00;99886.09;1656224;84;21550;-71
2022/08/02 09:44:14;;;;;;;3.95;3.65;;;;;;;19.23;100.00;99888.79;1671630;84;21013;-71
2022/08/02 09:46:43;;;;;;;5.92;3.45;;;;;;;19.24;100.00;99893.66;1710239;82;20985;-70
2022/08/02 09:49:18;;;;;;;2.70;2.50;;;;;;;19.24;100.00;99896.35;1705792;82;20995;-70
2022/08/02 09:51:53;;;;;;;7.90;7.25;;;;;;;19.23;100.00;99893.36;1711438;82;21028;-68
2022/08/02 09:54:24;;;;;;;4.90;4.50;;;;;;;19.22;100.00;99895.80;1705238;82;20989;-70
2022/08/02 09:56:53;;;;;;;4.30;2.98;;;;;;;19.20;100.00;99900.09;1668130;82;20985;-70
2022/08/02 09:59:23;;;;;;;3.12;2.98;;;;;;;19.20;100.00;99898.75;1652678;85;21117;-70
2022/08/02 10:01:51;;;;;;;3.05;2.85;;;;;;;19.21;100.00;99904.44;1627443;86;21516;-70
2022/08/02 10:04:23;;;;;;;4.33;4.00;;;;;;;19.21;100.00;99904.44;1666577;84;21034;-69
2022/08/02 10:06:52;;;;;;;3.55;3.35;;;;;;;19.22;100.00;99902.00;1667916;84;21050;-70
2022/08/02 10:09:20;;;;;;;6.22;4.25;;;;;;;19.26;100.00;99903.12;1670891;84;21068;-70
2022/08/02 10:11:47;;;;;;;4.05;3.60;;;;;;;19.32;100.00;99902.63;1662525;82;21175;-70
2022/08/02 10:14:15;;;;;;;4.55;4.20;;;;;;;19.40;100.00;99906.75;1664285;84;21001;-70
2022/08/02 10:16:43;;;;;;;4.28;3.60;;;;;;;19.51;100.00;99913.06;1669039;84;21496;-70
2022/08/02 10:19:10;;;;;;;3.80;3.65;;;;;;;19.57;100.00;99911.51;1617603;87;21115;-70
2022/08/02 10:21:48;;;;;;;4.83;4.20;;;;;;;19.62;100.00;99907.47;1661632;84;21137;-69
2022/08/02 10:24:18;;;;;;;5.47;4.25;;;;;;;19.64;100.00;99903.97;1665561;83;21012;-70
2022/08/02 10:26:46;;;;;;;7.70;3.72;;;;;;;19.63;100.00;99904.25;1664684;84;21009;-70
2022/08/02 10:29:19;;;;;;;4.10;3.70;;;;;;;19.64;100.00;99910.72;1665770;84;21067;-69
2022/08/02 10:32:18;;;;;;;4.30;3.20;;;;;;;19.69;100.00;99907.80;1664592;84;21469;-69
2022/08/02 10:34:54;;;;;;;3.85;3.55;;;;;;;19.68;100.00;99908.87;1662725;82;21462;-69
2022/08/02 10:37:30;;;;;;;2.27;2.17;;;;;;;19.61;100.00;99905.05;1681776;83;21136;-70
2022/08/02 10:39:57;;;;;;;3.05;2.50;;;;;;;19.56;100.00;99900.40;1691942;83;21025;-70
2022/08/02 10:42:54;;;;;;;2.90;2.70;;;;;;;19.52;98.30;99902.54;1684500;83;21084;-70
2022/08/02 10:45:22;;;;;;;3.12;2.92;;;;;;;19.47;98.10;99902.49;1671866;83;21025;-71
2022/08/02 10:48:05;;;;;;;2.95;2.80;;;;;;;19.43;98.93;99898.94;1665259;85;21068;-69
2022/08/02 10:50:51;;;;;;;2.62;2.42;;;;;;;19.42;100.00;99901.37;1659284;85;21055;-70
2022/08/02 10:53:29;;;;;;;4.15;3.08;;;;;;;19.38;99.62;99902.14;1662452;84;22291;-70
2022/08/02 10:55:59;;;;;;;3.52;3.17;;;;;;;19.35;99.84;99909.42;1666807;83;21478;-70
2022/08/02 10:58:30;;;;;;;5.17;2.40;;;;;;;19.32;100.00;99908.58;1682034;83;21496;-71
2022/08/02 11:00:58;;;;;;;4.50;2.40;;;;;;;19.31;99.90;99907.77;1671610;83;21057;-70
2022/08/02 11:03:33;;;;;;;4.37;3.12;;;;;;;19.26;98.28;99911.22;1625334;85;21035;-70
2022/08/02 11:06:11;;;;;;;4.60;2.60;;;;;;;19.23;99.01;99915.81;1623975;85;21155;-69
2022/08/02 11:08:37;;;;;;;4.17;3.40;;;;;;;19.17;96.85;99920.05;1652052;84;21040;-70
2022/08/02 11:11:19;;;;;;;3.37;3.00;;;;;;;19.08;97.20;99923.77;1649806;84;21136;-74
2022/08/02 11:14:07;;;;;;;3.45;3.15;;;;;;;19.06;97.12;99921.83;1651134;84;21074;-74
2022/08/02 11:17:02;;;;;;;3.47;3.30;;;;;;;19.00;97.93;99931.77;1653946;84;22187;-74
2022/08/02 11:19:28;;;;;;;5.78;5.12;;;;;;;18.94;99.00;99930.63;1575496;84;21130;-75
2022/08/02 11:22:05;;;;;;;3.92;3.62;;;;;;;18.86;99.94;99934.05;1651440;84;21076;-73
2022/08/02 11:24:34;;;;;;;4.40;4.10;;;;;;;18.80;100.00;99926.98;1651888;84;21615;-75
2022/08/02 11:27:03;;;;;;;7.22;3.80;;;;;;;18.78;100.00;99930.94;1651662;84;20950;-74
2022/08/02 11:29:40;;;;;;;3.33;3.02;;;;;;;18.75;100.00;99926.88;1651262;84;21060;-76
2022/08/02 11:32:21;;;;;;;4.37;4.08;;;;;;;18.76;100.00;99932.57;1655475;85;21057;-77
2022/08/02 11:34:52;;;;;;;4.80;3.75;;;;;;;18.75;100.00;99926.88;1654847;84;21052;-77
2022/08/02 11:37:36;;;;;;;3.67;3.45;;;;;;;18.79;100.00;99930.70;1649100;84;21005;-76
2022/08/02 11:40:08;;;;;;;6.10;4.05;;;;;;;18.82;100.00;99941.03;1655022;84;21388;-75
2022/08/02 11:42:38;;;;;;;6.50;5.70;;;;;;;18.81;100.00;99923.19;1634533;84;21013;-75
2022/08/02 11:45:09;;;;;;;7.17;6.50;;;;;;;18.83;100.00;99922.40;1649476;83;21032;-75
2022/08/02 11:47:49;;;;;;;4.40;4.00;;;;;;;18.89;100.00;99917.87;1658052;85;21020;-75
2022/08/02 11:50:16;;;;;;;4.75;4.42;;;;;;;18.91;100.00;99919.81;1652855;84;21020;-75
2022/08/02 11:52:43;;;;;;;4.30;4.00;;;;;;;18.94;100.00;99920.63;1623119;86;21104;-73